Terminal Aerodrome Forecast
Issued by NWS Blacksburg, VA

Home | Current Version | Previous Version | Text Only | Print | Product List | Glossary On
Versions: 1 2 3 4 5 6 7 8 9 10 11 12 13 14 15 16 17 18 19 20 21 22
000
FTUS41 KRNK 010527
TAFLYH
TAF
KLYH 010527Z 0106/0206 00000KT P6SM SCT040
     FM010900 00000KT 4SM BR SCT006
      TEMPO 0109/0112 BKN007
     FM011300 01004KT P6SM SCT025
     FM012100 07005KT P6SM SCT050=

USA.gov is the U.S. government's official web portal to all federal, state and local government web resources and services.